createdAt,value
2024-02-02T00:02:10.730Z,14.15
2024-02-02T00:04:58.285Z,14.02
2024-02-02T00:07:46.271Z,12.18
2024-02-02T00:10:34.008Z,10.75
2024-02-02T00:13:21.894Z,9.45
2024-02-02T00:16:09.758Z,7.03
2024-02-02T00:18:57.946Z,5.70
2024-02-02T00:21:45.832Z,4.60
2024-02-02T00:24:33.653Z,5.03
2024-02-02T00:27:21.281Z,3.88
2024-02-02T00:30:09.485Z,4.45
2024-02-02T00:32:57.404Z,3.30
2024-02-02T00:35:45.674Z,3.40
2024-02-02T00:38:33.345Z,4.00
2024-02-02T00:41:21.164Z,4.65
2024-02-02T00:44:09.138Z,4.80
2024-02-02T00:46:56.899Z,3.70
2024-02-02T00:49:45.253Z,4.15
2024-02-02T00:52:36.020Z,3.83
2024-02-02T00:55:24.009Z,5.47
2024-02-02T00:58:11.974Z,4.50
2024-02-02T01:01:00.138Z,4.53
2024-02-02T01:03:48.224Z,4.53
2024-02-02T01:06:36.213Z,5.68
2024-02-02T01:09:24.097Z,5.13
2024-02-02T01:12:12.235Z,5.53
2024-02-02T01:15:03.029Z,5.35
2024-02-02T01:17:51.089Z,6.97
2024-02-02T01:20:38.885Z,5.88
2024-02-02T01:23:26.628Z,5.60
2024-02-02T01:26:15.414Z,6.10
2024-02-02T01:29:03.170Z,5.55
2024-02-02T01:31:51.087Z,5.15
2024-02-02T01:34:38.985Z,4.93
2024-02-02T01:37:27.667Z,4.93
2024-02-02T01:40:15.905Z,5.68
2024-02-02T01:43:05.047Z,4.90
2024-02-02T01:45:56.629Z,4.78
2024-02-02T01:48:45.473Z,4.90
2024-02-02T01:51:33.505Z,5.15
2024-02-02T01:54:21.534Z,4.78
2024-02-02T01:57:09.275Z,4.57
2024-02-02T01:59:58.080Z,4.85
2024-02-02T02:02:46.115Z,4.90
2024-02-02T02:05:33.857Z,5.22
2024-02-02T02:08:24.586Z,4.68
2024-02-02T02:11:12.484Z,5.82
2024-02-02T02:14:01.131Z,6.15
2024-02-02T02:16:51.792Z,5.75
2024-02-02T02:19:40.990Z,5.82
2024-02-02T02:22:28.942Z,6.43
2024-02-02T02:25:16.710Z,5.53
2024-02-02T02:28:04.597Z,5.22
2024-02-02T02:30:52.252Z,5.20
2024-02-02T02:33:43.186Z,7.13
2024-02-02T02:36:31.102Z,6.38
2024-02-02T02:39:18.998Z,5.97
2024-02-02T02:42:06.790Z,5.80
2024-02-02T02:44:54.764Z,5.50
2024-02-02T02:47:43.386Z,5.53
2024-02-02T02:50:31.261Z,6.03
2024-02-02T02:53:18.929Z,6.18
2024-02-02T02:56:07.411Z,6.00
2024-02-02T02:58:55.387Z,6.38
2024-02-02T03:01:43.903Z,6.43
2024-02-02T03:04:31.698Z,7.38
2024-02-02T03:07:19.720Z,6.47
2024-02-02T03:10:07.605Z,5.95
2024-02-02T03:12:55.751Z,6.43
2024-02-02T03:15:43.796Z,7.13
2024-02-02T03:18:31.791Z,5.97
2024-02-02T03:21:19.710Z,6.82
2024-02-02T03:24:10.418Z,6.65
2024-02-02T03:26:58.365Z,6.25
2024-02-02T03:29:48.913Z,6.82
2024-02-02T03:32:36.653Z,6.25
2024-02-02T03:35:26.922Z,7.03
2024-02-02T03:38:14.635Z,7.85
2024-02-02T03:41:02.450Z,6.97
2024-02-02T03:43:50.549Z,7.07
2024-02-02T03:46:39.103Z,7.95
2024-02-02T03:49:26.985Z,6.75
2024-02-02T03:52:14.743Z,6.43
2024-02-02T03:54:53.297Z,7.70
2024-02-02T03:57:41.145Z,7.50
2024-02-02T04:00:28.890Z,7.50
2024-02-02T04:03:16.996Z,7.88
2024-02-02T04:06:04.904Z,6.90
2024-02-02T04:08:52.820Z,7.60
2024-02-02T04:11:40.884Z,8.40
2024-02-02T04:14:28.700Z,7.22
2024-02-02T04:17:17.263Z,7.72
2024-02-02T04:20:05.763Z,7.50
2024-02-02T04:22:53.802Z,8.20
2024-02-02T04:25:41.950Z,6.95
2024-02-02T04:28:29.912Z,7.97
2024-02-02T04:31:19.851Z,8.10
2024-02-02T04:34:07.781Z,7.53
2024-02-02T04:36:55.859Z,7.80
2024-02-02T04:39:43.478Z,7.78
2024-02-02T04:42:36.912Z,7.88
2024-02-02T04:45:24.887Z,7.78
2024-02-02T04:48:13.119Z,7.97
2024-02-02T04:51:01.930Z,8.88
2024-02-02T04:53:50.410Z,8.95
2024-02-02T04:56:38.211Z,8.88
2024-02-02T04:59:29.058Z,8.30
2024-02-02T05:02:16.835Z,8.30
2024-02-02T05:05:06.784Z,8.48
2024-02-02T05:07:54.679Z,9.05
2024-02-02T05:10:42.702Z,8.65
2024-02-02T05:13:30.463Z,9.52
2024-02-02T05:16:22.042Z,9.40
2024-02-02T05:19:09.876Z,11.05
2024-02-02T05:21:57.758Z,10.23
2024-02-02T05:24:49.544Z,10.15
2024-02-02T05:27:37.500Z,9.77
2024-02-02T05:30:25.259Z,10.10
2024-02-02T05:33:13.496Z,9.82
2024-02-02T05:36:02.571Z,10.60
2024-02-02T05:38:50.628Z,10.32
2024-02-02T05:41:38.396Z,10.25
2024-02-02T05:44:26.317Z,11.95
2024-02-02T05:47:14.132Z,11.00
2024-02-02T05:50:02.079Z,10.15
2024-02-02T05:52:52.325Z,10.05
2024-02-02T05:55:40.068Z,10.30
2024-02-02T05:58:29.051Z,10.35
2024-02-02T06:01:20.056Z,9.82
2024-02-02T06:04:08.863Z,11.20
2024-02-02T06:06:56.998Z,10.63
2024-02-02T06:09:44.971Z,10.38
2024-02-02T06:12:36.363Z,9.95
2024-02-02T06:15:24.080Z,9.80
2024-02-02T06:18:13.086Z,9.93
2024-02-02T06:21:00.933Z,10.25
2024-02-02T06:23:48.562Z,10.38
2024-02-02T06:26:38.305Z,11.63
2024-02-02T06:29:28.876Z,10.20
2024-02-02T06:32:23.548Z,10.23
2024-02-02T06:35:12.476Z,10.23
2024-02-02T06:38:00.235Z,9.95
2024-02-02T06:40:47.922Z,10.38
2024-02-02T06:43:35.570Z,9.77
2024-02-02T06:46:23.365Z,12.00
2024-02-02T06:49:11.138Z,8.95
2024-02-02T06:52:01.431Z,7.28
2024-02-02T06:54:49.456Z,10.32
2024-02-02T06:57:37.209Z,8.85
2024-02-02T07:00:24.961Z,9.10
2024-02-02T07:03:12.937Z,9.27
2024-02-02T07:06:01.021Z,8.63
2024-02-02T07:08:49.235Z,8.90
2024-02-02T07:12:00.139Z,9.40
2024-02-02T07:14:49.636Z,8.65
2024-02-02T07:17:37.795Z,9.18
2024-02-02T07:20:29.875Z,10.13
2024-02-02T07:23:24.288Z,10.13
2024-02-02T07:26:24.088Z,9.45
2024-02-02T07:29:31.134Z,9.95
2024-02-02T07:32:18.950Z,8.60
2024-02-02T07:35:18.549Z,10.35
2024-02-02T07:38:06.805Z,8.73
2024-02-02T07:41:02.663Z,9.70
2024-02-02T07:43:56.466Z,8.90
2024-02-02T07:46:47.017Z,9.57
2024-02-02T07:49:35.037Z,8.88
2024-02-02T07:52:22.819Z,8.95
2024-02-02T07:55:10.597Z,9.00
2024-02-02T07:58:03.959Z,8.50
2024-02-02T08:00:53.013Z,9.30
2024-02-02T08:03:40.957Z,8.80
2024-02-02T08:06:29.141Z,10.88
2024-02-02T08:09:16.914Z,9.32
2024-02-02T08:12:05.036Z,9.73
2024-02-02T08:14:52.821Z,9.88
2024-02-02T08:17:40.805Z,9.13
2024-02-02T08:20:28.360Z,9.48
2024-02-02T08:23:18.606Z,8.70
2024-02-02T08:26:07.789Z,8.05
2024-02-02T08:28:55.672Z,7.53
2024-02-02T08:31:46.131Z,7.60
2024-02-02T08:34:34.214Z,8.85
2024-02-02T08:37:22.230Z,7.15
2024-02-02T08:40:27.706Z,8.63
2024-02-02T08:43:21.098Z,8.63
2024-02-02T08:46:12.431Z,6.55
2024-02-02T08:49:01.146Z,6.87
2024-02-02T08:51:50.995Z,6.80
2024-02-02T08:54:39.434Z,8.57
2024-02-02T08:57:34.425Z,8.13
2024-02-02T09:00:35.238Z,8.15
2024-02-02T09:03:23.145Z,8.32
2024-02-02T09:06:25.733Z,6.47
2024-02-02T09:09:19.416Z,7.20
2024-02-02T09:12:07.206Z,8.30
2024-02-02T09:14:55.183Z,7.38
2024-02-02T09:17:42.928Z,7.25
2024-02-02T09:20:45.128Z,8.10
2024-02-02T09:23:33.826Z,5.53
2024-02-02T09:26:27.949Z,6.90
2024-02-02T09:29:15.667Z,5.93
2024-02-02T09:32:03.336Z,6.68
2024-02-02T09:34:51.384Z,6.32
2024-02-02T09:37:44.654Z,6.72
2024-02-02T09:40:34.997Z,6.15
2024-02-02T09:43:30.971Z,6.55
2024-02-02T09:46:22.124Z,6.85
2024-02-02T09:49:13.920Z,5.90
2024-02-02T09:52:04.617Z,6.20
2024-02-02T09:54:55.315Z,6.03
2024-02-02T09:57:46.217Z,6.25
2024-02-02T10:00:39.833Z,7.25
2024-02-02T10:03:35.706Z,6.15
2024-02-02T10:06:49.340Z,5.45
2024-02-02T10:09:59.558Z,5.50
2024-02-02T10:12:55.956Z,5.55
2024-02-02T10:15:59.159Z,5.72
2024-02-02T10:18:57.132Z,4.90
2024-02-02T10:22:05.621Z,5.72
2024-02-02T10:24:54.765Z,5.97
2024-02-02T10:27:53.015Z,5.22
2024-02-02T10:30:58.152Z,4.68
2024-02-02T10:33:59.088Z,6.22
2024-02-02T10:36:47.663Z,5.65
2024-02-02T10:39:38.178Z,5.57
2024-02-02T10:42:45.925Z,19.17
2024-02-02T10:45:56.721Z,9.73
2024-02-02T10:49:03.766Z,6.97
2024-02-02T10:52:09.583Z,7.05
2024-02-02T10:55:03.434Z,8.20
2024-02-02T10:57:51.124Z,6.63
2024-02-02T11:00:43.497Z,6.70
2024-02-02T11:03:34.997Z,6.93
2024-02-02T11:06:27.463Z,6.65
2024-02-02T11:09:18.952Z,6.60
2024-02-02T11:12:13.799Z,6.47
2024-02-02T11:15:20.162Z,5.47
2024-02-02T11:18:22.549Z,7.07
2024-02-02T11:21:29.524Z,5.88
2024-02-02T11:24:21.972Z,5.43
2024-02-02T11:27:18.401Z,6.20
2024-02-02T11:30:12.267Z,5.65
2024-02-02T11:33:21.512Z,6.88
2024-02-02T11:36:24.865Z,5.18
2024-02-02T11:39:23.882Z,5.68
2024-02-02T11:42:16.276Z,5.40
2024-02-02T11:47:57.766Z,6.55
2024-02-02T11:50:46.215Z,6.95
2024-02-02T11:53:48.603Z,5.20
2024-02-02T11:56:41.050Z,5.38
2024-02-02T11:59:41.427Z,5.68
2024-02-02T12:02:46.733Z,5.78
2024-02-02T12:05:42.331Z,5.40
2024-02-02T12:08:36.338Z,5.40
2024-02-02T12:11:29.763Z,4.95
2024-02-02T12:14:30.717Z,5.45
2024-02-02T12:17:19.362Z,4.88
2024-02-02T12:20:11.903Z,6.78
2024-02-02T12:23:00.342Z,6.10
2024-02-02T12:25:48.832Z,5.32
2024-02-02T12:28:36.579Z,4.10
2024-02-02T12:31:24.232Z,6.75
2024-02-02T12:34:13.107Z,7.20
2024-02-02T12:37:02.763Z,6.30
2024-02-02T12:39:53.550Z,6.25
2024-02-02T12:42:41.185Z,5.80
2024-02-02T12:45:34.595Z,5.10
2024-02-02T12:48:22.990Z,5.13
2024-02-02T12:51:10.787Z,5.43
2024-02-02T12:53:58.590Z,6.07
2024-02-02T12:56:47.365Z,7.32
2024-02-02T12:59:35.840Z,6.10
2024-02-02T13:02:24.708Z,7.30
2024-02-02T13:05:13.567Z,5.97
2024-02-02T13:08:04.274Z,8.05
2024-02-02T13:10:53.390Z,6.22
2024-02-02T13:13:43.996Z,8.60
2024-02-02T13:16:37.381Z,6.88
2024-02-02T13:19:35.172Z,6.93
2024-02-02T13:22:27.903Z,6.95
2024-02-02T13:25:21.014Z,7.38
2024-02-02T13:28:17.754Z,7.97
2024-02-02T13:31:13.403Z,6.82
2024-02-02T13:34:03.696Z,7.75
2024-02-02T13:36:51.821Z,7.35
2024-02-02T13:39:39.567Z,7.72
2024-02-02T13:42:28.445Z,8.25
2024-02-02T13:45:17.078Z,7.88
2024-02-02T13:48:05.213Z,8.18
2024-02-02T13:50:53.358Z,7.55
2024-02-02T13:53:41.226Z,9.52
2024-02-02T13:56:29.922Z,8.73
2024-02-02T13:59:21.067Z,8.30
2024-02-02T14:02:09.246Z,8.52
2024-02-02T14:05:00.134Z,8.10
2024-02-02T14:08:08.224Z,8.70
2024-02-02T14:10:56.009Z,8.43
2024-02-02T14:13:46.746Z,7.50
2024-02-02T14:16:34.564Z,8.95
2024-02-02T14:19:22.365Z,7.68
2024-02-02T14:22:12.254Z,8.77
2024-02-02T14:25:03.418Z,7.75
2024-02-02T14:27:52.551Z,9.60
2024-02-02T14:30:40.357Z,9.32
2024-02-02T14:33:28.195Z,8.60
2024-02-02T14:36:18.387Z,9.57
2024-02-02T14:39:13.832Z,10.00
2024-02-02T14:42:01.661Z,9.50
2024-02-02T14:44:49.464Z,8.98
2024-02-02T14:47:37.206Z,9.23
2024-02-02T14:50:26.884Z,10.70
2024-02-02T14:53:14.626Z,10.32
2024-02-02T14:56:05.076Z,9.85
2024-02-02T14:59:01.373Z,9.82
2024-02-02T15:01:51.772Z,9.23
2024-02-02T15:04:40.362Z,10.63
2024-02-02T15:07:28.852Z,12.43
2024-02-02T15:10:16.528Z,10.00
2024-02-02T15:13:05.931Z,11.00
2024-02-02T15:15:53.913Z,10.70
2024-02-02T15:18:47.580Z,11.70
2024-02-02T15:21:35.519Z,10.98
2024-02-02T15:24:23.583Z,12.38
2024-02-02T15:27:11.948Z,12.45
2024-02-02T15:29:59.744Z,12.38
2024-02-02T15:32:47.478Z,11.77
2024-02-02T15:35:37.659Z,12.65
2024-02-02T15:38:26.084Z,15.60
2024-02-02T15:41:15.371Z,13.23
2024-02-02T15:44:03.383Z,12.18
2024-02-02T15:46:51.142Z,15.50
2024-02-02T15:49:39.187Z,23.73
2024-02-02T15:52:29.529Z,15.52
2024-02-02T15:55:21.058Z,12.65
2024-02-02T15:58:38.913Z,14.35
2024-02-02T16:01:41.140Z,16.42
2024-02-02T16:04:51.650Z,15.27
2024-02-02T16:07:39.399Z,13.07
2024-02-02T16:10:28.892Z,12.20
2024-02-02T16:13:17.175Z,19.40
2024-02-02T16:16:05.992Z,17.23
2024-02-02T16:18:53.719Z,24.48
2024-02-02T16:21:42.441Z,28.25
2024-02-02T16:24:33.736Z,25.95
2024-02-02T16:27:21.761Z,28.57
2024-02-02T16:30:09.542Z,26.63
2024-02-02T16:32:58.796Z,24.55
2024-02-02T16:35:47.502Z,17.45
2024-02-02T16:38:38.031Z,16.63
2024-02-02T16:41:25.684Z,13.90
2024-02-02T16:44:15.416Z,15.10
2024-02-02T16:47:04.248Z,14.27
2024-02-02T16:49:52.092Z,13.88
2024-02-02T16:52:40.541Z,12.63
2024-02-02T16:55:30.429Z,12.13
2024-02-02T16:58:18.196Z,13.00
2024-02-02T17:01:06.388Z,14.18
2024-02-02T17:03:57.536Z,15.82
2024-02-02T17:06:45.609Z,14.80
2024-02-02T17:09:36.836Z,15.15
2024-02-02T17:12:28.002Z,16.23
2024-02-02T17:15:17.006Z,17.13
2024-02-02T17:18:06.127Z,15.93
2024-02-02T17:20:55.092Z,15.50
2024-02-02T17:23:44.039Z,14.77
2024-02-02T17:26:35.669Z,14.25
2024-02-02T17:29:26.034Z,15.40
2024-02-02T17:32:17.457Z,14.98
2024-02-02T17:35:08.736Z,15.77
2024-02-02T17:37:58.696Z,15.07
2024-02-02T17:40:47.873Z,12.38
2024-02-02T17:43:38.469Z,11.25
2024-02-02T17:46:26.611Z,12.73
2024-02-02T17:49:14.891Z,12.18
2024-02-02T17:52:03.383Z,12.68
2024-02-02T17:54:51.401Z,10.80
2024-02-02T17:57:42.098Z,10.07
2024-02-02T18:00:30.283Z,9.95
2024-02-02T18:03:18.271Z,9.32
2024-02-02T18:06:06.345Z,9.75
2024-02-02T18:08:54.367Z,9.43
2024-02-02T18:11:42.611Z,10.68
2024-02-02T18:14:31.020Z,10.75
2024-02-02T18:17:19.590Z,8.85
2024-02-02T18:20:09.107Z,10.55
2024-02-02T18:22:57.959Z,12.63
2024-02-02T18:25:45.771Z,9.88
2024-02-02T18:28:33.874Z,8.68
2024-02-02T18:31:21.692Z,9.88
2024-02-02T18:34:09.840Z,8.95
2024-02-02T18:36:57.724Z,11.25
2024-02-02T18:39:45.314Z,9.68
2024-02-02T18:42:33.140Z,8.68
2024-02-02T18:45:22.624Z,9.77
2024-02-02T18:48:10.652Z,8.73
2024-02-02T18:50:58.363Z,5.88
2024-02-02T18:53:46.394Z,7.30
2024-02-02T18:56:36.314Z,7.03
2024-02-02T18:59:24.419Z,6.47
2024-02-02T19:02:15.628Z,7.15
2024-02-02T19:05:06.779Z,6.78
2024-02-02T19:07:56.525Z,6.13
2024-02-02T19:10:45.857Z,6.72
2024-02-02T19:13:33.702Z,7.50
2024-02-02T19:16:21.599Z,6.85
2024-02-02T19:19:09.746Z,8.88
2024-02-02T19:21:59.327Z,9.35
2024-02-02T19:24:47.609Z,8.88
2024-02-02T19:27:35.539Z,8.65
2024-02-02T19:30:27.445Z,10.48
2024-02-02T19:33:15.678Z,9.80
2024-02-02T19:36:03.441Z,9.43
2024-02-02T19:38:51.321Z,8.27
2024-02-02T19:41:41.653Z,6.88
2024-02-02T19:44:30.073Z,6.88
2024-02-02T19:47:19.258Z,6.88
2024-02-02T19:50:07.550Z,7.00
2024-02-02T19:52:56.153Z,7.10
2024-02-02T19:55:44.166Z,7.15
2024-02-02T19:58:31.901Z,5.82
2024-02-02T20:01:22.668Z,5.47
2024-02-02T20:04:10.424Z,5.75
2024-02-02T20:06:58.451Z,5.70
2024-02-02T20:09:46.242Z,5.15
2024-02-02T20:12:34.051Z,5.25
2024-02-02T20:15:21.681Z,5.97
2024-02-02T20:18:10.355Z,7.35
2024-02-02T20:20:58.048Z,6.28
2024-02-02T20:23:46.999Z,7.10
2024-02-02T20:26:34.546Z,7.32
2024-02-02T20:29:22.530Z,6.32
2024-02-02T20:32:10.303Z,5.63
2024-02-02T20:34:57.996Z,9.45
2024-02-02T20:37:45.645Z,9.13
2024-02-02T20:40:34.168Z,7.25
2024-02-02T20:43:22.094Z,5.32
2024-02-02T20:46:15.561Z,4.90
2024-02-02T20:49:03.296Z,4.40
2024-02-02T20:51:53.397Z,3.95
2024-02-02T20:54:41.155Z,4.45
2024-02-02T20:57:28.975Z,4.93
2024-02-02T21:00:16.941Z,3.97
2024-02-02T21:03:05.582Z,3.70
2024-02-02T21:05:55.710Z,4.00
2024-02-02T21:08:44.968Z,4.40
2024-02-02T21:11:32.573Z,4.88
2024-02-02T21:14:20.367Z,4.38
2024-02-02T21:17:09.406Z,3.35
2024-02-02T21:19:59.661Z,4.15
2024-02-02T21:22:47.224Z,3.72
2024-02-02T21:25:34.942Z,4.30
2024-02-02T21:28:23.275Z,4.68
2024-02-02T21:31:10.928Z,3.50
2024-02-02T21:33:58.759Z,3.85
2024-02-02T21:36:46.902Z,3.70
2024-02-02T21:39:35.651Z,3.95
2024-02-02T21:42:23.339Z,3.88
2024-02-02T21:45:11.541Z,3.60
2024-02-02T21:47:59.332Z,2.90
2024-02-02T21:50:47.138Z,4.15
2024-02-02T21:53:34.841Z,3.75
2024-02-02T21:56:22.984Z,4.65
2024-02-02T21:59:10.809Z,3.90
2024-02-02T22:01:58.514Z,4.95
2024-02-02T22:04:50.305Z,6.25
2024-02-02T22:07:39.074Z,5.93
2024-02-02T22:10:27.140Z,5.53
2024-02-02T22:13:16.095Z,4.72
2024-02-02T22:16:04.132Z,4.68
2024-02-02T22:18:51.808Z,4.28
2024-02-02T22:21:40.275Z,5.00
2024-02-02T22:24:28.499Z,3.10
2024-02-02T22:27:18.618Z,2.78
2024-02-02T22:30:09.408Z,3.50
2024-02-02T22:32:59.222Z,3.00
2024-02-02T22:35:50.690Z,3.00
2024-02-02T22:38:39.028Z,3.10
2024-02-02T22:41:33.448Z,3.65
2024-02-02T22:44:22.717Z,2.97
2024-02-02T22:47:10.716Z,2.92
2024-02-02T22:49:58.519Z,4.40
2024-02-02T22:52:47.276Z,3.95
2024-02-02T22:55:35.094Z,4.85
2024-02-02T22:58:22.824Z,2.95
2024-02-02T23:01:11.348Z,2.70
2024-02-02T23:03:59.206Z,2.90
2024-02-02T23:06:47.082Z,3.80
2024-02-02T23:09:35.292Z,2.42
2024-02-02T23:12:23.762Z,2.95
2024-02-02T23:15:11.542Z,3.45
2024-02-02T23:18:00.746Z,2.35
2024-02-02T23:20:49.218Z,2.80
2024-02-02T23:23:38.103Z,2.80
2024-02-02T23:26:25.672Z,3.15
2024-02-02T23:29:13.380Z,2.63
2024-02-02T23:32:01.747Z,4.32
2024-02-02T23:34:50.285Z,2.65
2024-02-02T23:37:37.956Z,3.05
2024-02-02T23:40:25.560Z,2.67
2024-02-02T23:43:13.277Z,2.53
2024-02-02T23:46:01.132Z,2.55
2024-02-02T23:48:50.848Z,2.72
2024-02-02T23:51:39.344Z,2.60
2024-02-02T23:54:27.114Z,2.97
2024-02-02T23:57:14.869Z,3.10
